createdAt,value
2019-03-29T00:01:59.491Z,90.71
2019-03-29T00:04:30.208Z,90.63
2019-03-29T00:07:00.882Z,90.52
2019-03-29T00:09:32.131Z,90.49
2019-03-29T00:12:03.118Z,90.73
2019-03-29T00:14:33.790Z,90.70
2019-03-29T00:17:04.798Z,90.59
2019-03-29T00:19:35.795Z,90.38
2019-03-29T00:22:06.992Z,90.21
2019-03-29T00:24:37.694Z,90.22
2019-03-29T00:27:08.423Z,90.21
2019-03-29T00:29:39.182Z,89.98
2019-03-29T00:32:09.870Z,90.02
2019-03-29T00:34:41.893Z,90.04
2019-03-29T00:37:13.204Z,89.88
2019-03-29T00:39:43.998Z,89.81
2019-03-29T00:42:14.756Z,89.56
2019-03-29T00:44:45.955Z,89.53
2019-03-29T00:47:16.732Z,89.28
2019-03-29T00:49:47.391Z,89.25
2019-03-29T00:52:18.458Z,89.36
2019-03-29T00:54:49.238Z,89.63
2019-03-29T00:57:19.938Z,89.66
2019-03-29T00:59:50.595Z,89.59
2019-03-29T01:02:21.339Z,89.31
2019-03-29T01:04:51.986Z,89.40
2019-03-29T01:07:22.649Z,89.27
2019-03-29T01:09:53.305Z,89.52
2019-03-29T01:12:24.423Z,89.55
2019-03-29T01:14:55.453Z,89.44
2019-03-29T01:17:26.456Z,89.77
2019-03-29T01:19:57.112Z,90.02
2019-03-29T01:22:27.885Z,89.96
2019-03-29T01:24:58.611Z,90.26
2019-03-29T01:27:29.278Z,90.23
2019-03-29T01:30:00.289Z,90.03
2019-03-29T01:32:30.960Z,89.92
2019-03-29T01:35:01.673Z,90.00
2019-03-29T01:37:32.368Z,89.93
2019-03-29T01:40:03.126Z,89.99
2019-03-29T01:42:33.791Z,89.68
2019-03-29T01:45:04.747Z,89.62
2019-03-29T01:47:35.409Z,89.90
2019-03-29T01:50:08.010Z,90.62
2019-03-29T01:52:38.832Z,90.69
2019-03-29T01:55:10.047Z,90.55
2019-03-29T01:57:40.728Z,90.30
2019-03-29T02:00:13.561Z,90.38
2019-03-29T02:02:44.251Z,90.27
2019-03-29T02:05:14.947Z,90.69
2019-03-29T02:07:45.615Z,90.65
2019-03-29T02:10:16.418Z,90.74
2019-03-29T02:12:47.212Z,90.86
2019-03-29T02:15:18.022Z,90.57
2019-03-29T02:17:48.793Z,90.93
2019-03-29T02:20:19.718Z,91.32
2019-03-29T02:22:50.643Z,91.50
2019-03-29T02:25:21.630Z,91.60
2019-03-29T02:27:53.026Z,91.22
2019-03-29T02:30:24.072Z,90.81
2019-03-29T02:32:54.903Z,91.17
2019-03-29T02:35:26.424Z,91.21
2019-03-29T02:37:57.167Z,90.80
2019-03-29T02:40:28.187Z,91.15
2019-03-29T02:42:58.862Z,91.29
2019-03-29T02:45:30.660Z,91.13
2019-03-29T02:48:01.471Z,91.31
2019-03-29T02:50:32.142Z,91.40
2019-03-29T02:53:02.930Z,91.31
2019-03-29T02:55:34.093Z,91.29
2019-03-29T02:58:04.807Z,91.15
2019-03-29T03:00:35.757Z,90.92
2019-03-29T03:03:06.900Z,91.23
2019-03-29T03:05:37.619Z,91.15
2019-03-29T03:08:08.338Z,91.09
2019-03-29T03:10:38.995Z,91.21
2019-03-29T03:13:09.793Z,91.49
2019-03-29T03:15:40.546Z,91.46
2019-03-29T03:18:11.271Z,91.43
2019-03-29T03:20:41.946Z,91.27
2019-03-29T03:23:12.664Z,91.00
2019-03-29T03:25:43.421Z,90.92
2019-03-29T03:28:14.246Z,90.69
2019-03-29T03:30:44.904Z,91.45
2019-03-29T03:33:15.857Z,91.40
2019-03-29T03:35:46.509Z,91.50
2019-03-29T03:38:17.295Z,91.46
2019-03-29T03:40:48.042Z,91.42
2019-03-29T03:43:18.980Z,91.40
2019-03-29T03:45:49.938Z,91.19
2019-03-29T03:48:20.693Z,90.67
2019-03-29T03:50:51.460Z,90.64
2019-03-29T03:53:22.088Z,90.73
2019-03-29T03:55:54.735Z,90.91
2019-03-29T03:58:26.432Z,90.75
2019-03-29T04:00:58.911Z,90.78
2019-03-29T04:03:29.903Z,90.65
2019-03-29T04:06:01.134Z,90.56
2019-03-29T04:08:32.152Z,90.50
2019-03-29T04:11:02.784Z,90.74
2019-03-29T04:13:34.062Z,91.03
2019-03-29T04:16:04.832Z,91.35
2019-03-29T04:18:35.712Z,91.46
2019-03-29T04:21:06.642Z,91.95
2019-03-29T04:23:37.416Z,91.96
2019-03-29T04:26:08.122Z,91.75
2019-03-29T04:28:38.803Z,91.54
2019-03-29T04:31:09.882Z,91.84
2019-03-29T04:33:40.783Z,92.07
2019-03-29T04:36:11.497Z,92.18
2019-03-29T04:38:42.273Z,92.61
2019-03-29T04:41:13.001Z,92.96
2019-03-29T04:43:43.754Z,93.15
2019-03-29T04:46:14.538Z,92.96
2019-03-29T04:48:45.184Z,92.77
2019-03-29T04:51:16.336Z,92.62
2019-03-29T04:53:47.346Z,92.42
2019-03-29T04:56:18.226Z,92.01
2019-03-29T04:58:48.888Z,91.90
2019-03-29T05:01:19.518Z,92.22
2019-03-29T05:03:50.182Z,92.40
2019-03-29T05:06:21.098Z,91.91
2019-03-29T05:08:52.034Z,91.92
2019-03-29T05:11:23.228Z,91.99
2019-03-29T05:13:54.058Z,91.82
2019-03-29T05:16:25.471Z,91.50
2019-03-29T05:18:56.298Z,91.37
2019-03-29T05:21:27.157Z,91.33
2019-03-29T05:23:57.932Z,91.47
2019-03-29T05:26:28.569Z,91.15
2019-03-29T05:28:59.286Z,90.84
2019-03-29T05:31:30.001Z,90.61
2019-03-29T05:34:00.790Z,90.44
2019-03-29T05:36:32.083Z,90.11
2019-03-29T05:39:02.777Z,90.00
2019-03-29T05:41:33.596Z,89.87
2019-03-29T05:44:04.595Z,89.63
2019-03-29T05:46:35.450Z,89.18
2019-03-29T05:49:06.462Z,89.36
2019-03-29T05:51:37.089Z,89.43
2019-03-29T05:54:07.843Z,89.30
2019-03-29T05:56:38.621Z,88.91
2019-03-29T05:59:09.422Z,89.06
2019-03-29T06:01:40.405Z,89.10
2019-03-29T06:04:11.122Z,88.59
2019-03-29T06:06:41.781Z,88.30
2019-03-29T06:09:12.449Z,88.16
2019-03-29T06:11:43.646Z,88.13
2019-03-29T06:14:14.280Z,88.19
2019-03-29T06:16:44.960Z,88.56
2019-03-29T06:19:15.617Z,88.07
2019-03-29T06:21:46.272Z,87.96
2019-03-29T06:24:17.004Z,86.75
2019-03-29T06:26:47.616Z,85.75
2019-03-29T06:29:18.581Z,86.42
2019-03-29T06:31:49.325Z,86.44
2019-03-29T06:34:19.981Z,86.79
2019-03-29T06:36:52.502Z,86.40
2019-03-29T06:39:26.161Z,85.92
2019-03-29T06:41:57.900Z,85.82
2019-03-29T06:44:28.597Z,85.23
2019-03-29T06:46:59.338Z,84.96
2019-03-29T06:49:30.305Z,84.76
2019-03-29T06:52:00.969Z,84.65
2019-03-29T06:54:31.622Z,83.43
2019-03-29T06:57:02.654Z,84.77
2019-03-29T06:59:33.653Z,84.59
2019-03-29T07:02:04.600Z,84.17
2019-03-29T07:04:35.264Z,83.61
2019-03-29T07:07:06.086Z,82.98
2019-03-29T07:09:36.748Z,82.76
2019-03-29T07:12:07.386Z,82.23
2019-03-29T07:14:38.345Z,81.89
2019-03-29T07:17:10.454Z,81.29
2019-03-29T07:19:41.325Z,80.96
2019-03-29T07:22:11.986Z,81.27
2019-03-29T07:24:42.916Z,80.93
2019-03-29T07:27:13.657Z,79.70
2019-03-29T07:29:44.796Z,79.15
2019-03-29T07:32:15.658Z,78.96
2019-03-29T07:34:49.110Z,79.63
2019-03-29T07:37:19.080Z,79.65
2019-03-29T07:39:49.722Z,78.87
2019-03-29T07:42:20.370Z,77.98
2019-03-29T07:44:51.018Z,77.50
2019-03-29T07:47:21.975Z,78.41
2019-03-29T07:49:52.660Z,78.09
2019-03-29T07:52:23.546Z,76.96
2019-03-29T07:54:54.209Z,78.16
2019-03-29T07:57:24.837Z,76.96
2019-03-29T07:59:55.472Z,76.58
2019-03-29T08:02:26.169Z,75.67
2019-03-29T08:04:56.833Z,75.80
2019-03-29T08:07:28.901Z,75.23
2019-03-29T08:10:03.232Z,74.66
2019-03-29T08:12:32.496Z,74.48
2019-03-29T08:15:03.463Z,74.17
2019-03-29T08:17:34.112Z,73.92
2019-03-29T08:20:36.518Z,74.04
2019-03-29T08:22:37.625Z,73.62
2019-03-29T08:25:08.417Z,73.71
2019-03-29T08:27:39.078Z,73.13
2019-03-29T08:30:10.508Z,73.83
2019-03-29T08:32:41.140Z,73.24
2019-03-29T08:35:11.957Z,71.63
2019-03-29T08:37:42.972Z,72.17
2019-03-29T08:40:13.834Z,71.27
2019-03-29T08:42:44.515Z,70.35
2019-03-29T08:45:15.350Z,71.41
2019-03-29T08:47:46.002Z,70.06
2019-03-29T08:50:16.722Z,70.06
2019-03-29T08:52:47.942Z,69.93
2019-03-29T08:55:18.580Z,69.71
2019-03-29T08:57:49.871Z,69.77
2019-03-29T09:00:34.636Z,69.52
2019-03-29T09:03:05.817Z,69.51
2019-03-29T09:05:39.189Z,69.31
2019-03-29T09:08:08.917Z,68.68
2019-03-29T09:10:39.911Z,69.33
2019-03-29T09:13:10.560Z,68.50
2019-03-29T09:15:41.233Z,67.90
2019-03-29T09:18:12.068Z,68.53
2019-03-29T09:20:43.163Z,67.70
2019-03-29T09:23:13.820Z,68.83
2019-03-29T09:25:44.579Z,67.56
2019-03-29T09:28:15.216Z,67.92
2019-03-29T09:30:45.894Z,67.45
2019-03-29T09:33:16.604Z,66.26
2019-03-29T09:35:47.341Z,67.39
2019-03-29T09:38:18.155Z,66.22
2019-03-29T09:40:58.362Z,66.91
2019-03-29T09:43:21.241Z,65.45
2019-03-29T09:45:51.952Z,64.79
2019-03-29T09:48:22.669Z,65.72
2019-03-29T09:50:53.945Z,63.17
2019-03-29T09:53:24.658Z,62.15
2019-03-29T09:55:55.336Z,63.81
2019-03-29T09:58:25.996Z,62.25
2019-03-29T10:00:56.693Z,59.75
2019-03-29T10:03:27.338Z,59.82
2019-03-29T10:05:57.983Z,58.58
2019-03-29T10:08:28.661Z,56.11
2019-03-29T10:10:59.356Z,56.98
2019-03-29T10:13:30.035Z,55.60
2019-03-29T10:16:00.925Z,57.33
2019-03-29T10:18:31.565Z,53.50
2019-03-29T10:21:02.484Z,53.41
2019-03-29T10:23:33.416Z,52.49
2019-03-29T10:26:04.131Z,52.32
2019-03-29T10:28:34.800Z,51.17
2019-03-29T10:31:05.514Z,50.03
2019-03-29T10:33:36.172Z,48.17
2019-03-29T10:36:06.842Z,47.49
2019-03-29T10:38:37.503Z,46.92
2019-03-29T10:41:08.151Z,46.09
2019-03-29T10:43:39.227Z,46.22
2019-03-29T10:46:10.116Z,46.27
2019-03-29T10:48:40.798Z,43.81
2019-03-29T10:51:11.760Z,44.95
2019-03-29T10:53:42.412Z,44.99
2019-03-29T10:56:13.081Z,44.81
2019-03-29T10:58:45.013Z,44.02
2019-03-29T11:01:15.926Z,43.37
2019-03-29T11:03:46.597Z,43.57
2019-03-29T11:06:17.630Z,43.87
2019-03-29T11:08:48.387Z,43.75
2019-03-29T11:11:19.016Z,42.42
2019-03-29T11:13:49.702Z,42.16
2019-03-29T11:16:20.388Z,42.15
2019-03-29T11:18:51.056Z,41.91
2019-03-29T11:21:21.718Z,43.76
2019-03-29T11:23:52.373Z,42.70
2019-03-29T11:26:23.100Z,43.99
2019-03-29T11:28:54.035Z,43.38
2019-03-29T11:31:25.595Z,43.86
2019-03-29T11:33:56.424Z,42.97
2019-03-29T11:36:27.113Z,43.03
2019-03-29T11:38:58.130Z,42.81
2019-03-29T11:41:29.179Z,43.87
2019-03-29T11:44:00.096Z,43.34
2019-03-29T11:46:30.758Z,42.56
2019-03-29T11:49:01.421Z,44.07
2019-03-29T11:51:32.055Z,42.17
2019-03-29T11:54:02.725Z,41.57
2019-03-29T11:56:33.358Z,41.23
2019-03-29T11:59:03.996Z,42.09
2019-03-29T12:01:34.675Z,42.12
2019-03-29T12:04:05.627Z,42.14
2019-03-29T12:06:36.288Z,41.44
2019-03-29T12:09:08.788Z,42.37
2019-03-29T12:11:39.563Z,41.15
2019-03-29T12:14:10.518Z,39.13
2019-03-29T12:16:41.192Z,39.46
2019-03-29T12:19:11.869Z,39.54
2019-03-29T12:21:42.534Z,38.84
2019-03-29T12:24:13.485Z,37.74
2019-03-29T12:26:44.440Z,37.27
2019-03-29T12:29:15.152Z,38.30
2019-03-29T12:31:45.886Z,39.15
2019-03-29T12:34:16.870Z,38.78
2019-03-29T12:36:47.503Z,40.95
2019-03-29T12:39:18.172Z,41.89
2019-03-29T12:41:48.874Z,41.42
2019-03-29T12:44:19.838Z,40.95
2019-03-29T12:46:50.458Z,40.76
2019-03-29T12:49:21.121Z,40.05
2019-03-29T12:51:51.870Z,40.09
2019-03-29T12:54:22.723Z,39.41
2019-03-29T12:56:53.363Z,38.15
2019-03-29T12:59:24.048Z,38.34
2019-03-29T13:01:54.778Z,40.20
2019-03-29T13:04:25.408Z,40.03
2019-03-29T13:06:56.067Z,38.41
2019-03-29T13:09:26.769Z,38.68
2019-03-29T13:11:57.507Z,39.67
2019-03-29T13:14:28.131Z,40.45
2019-03-29T13:16:58.774Z,38.58
2019-03-29T13:19:29.445Z,38.39
2019-03-29T13:22:00.094Z,37.93
2019-03-29T13:24:30.723Z,38.47
2019-03-29T13:27:01.383Z,39.41
2019-03-29T13:29:32.075Z,39.47
2019-03-29T13:32:21.781Z,38.69
2019-03-29T13:34:52.545Z,37.37
2019-03-29T13:37:23.284Z,40.07
2019-03-29T13:39:54.255Z,41.57
2019-03-29T13:42:24.956Z,40.71
2019-03-29T13:44:55.636Z,42.13
2019-03-29T13:47:26.319Z,41.01
2019-03-29T13:49:56.987Z,39.13
2019-03-29T13:52:27.748Z,39.76
2019-03-29T13:54:58.414Z,41.90
2019-03-29T13:57:29.312Z,42.65
2019-03-29T14:00:00.377Z,40.90
2019-03-29T14:02:31.204Z,40.22
2019-03-29T14:05:01.980Z,39.97
2019-03-29T14:07:33.094Z,42.03
2019-03-29T14:10:04.959Z,41.28
2019-03-29T14:12:35.932Z,39.92
2019-03-29T14:15:09.128Z,39.81
2019-03-29T14:17:40.936Z,39.79
2019-03-29T14:20:12.265Z,39.23
2019-03-29T14:22:43.300Z,39.67
2019-03-29T14:25:15.755Z,39.65
2019-03-29T14:27:46.965Z,40.18
2019-03-29T14:30:18.178Z,40.47
2019-03-29T14:32:49.068Z,40.72
2019-03-29T14:35:23.054Z,41.50
2019-03-29T14:37:54.070Z,40.93
2019-03-29T14:40:25.100Z,40.20
2019-03-29T14:42:56.755Z,40.93
2019-03-29T14:45:27.676Z,40.90
2019-03-29T14:47:58.614Z,40.38
2019-03-29T14:50:29.418Z,41.21
2019-03-29T14:53:00.073Z,41.05
2019-03-29T14:55:30.976Z,41.84
2019-03-29T14:58:02.198Z,41.35
2019-03-29T15:00:44.177Z,41.04
2019-03-29T15:03:15.419Z,41.46
2019-03-29T15:05:46.549Z,41.79
2019-03-29T15:08:17.207Z,42.05
2019-03-29T15:10:47.956Z,42.23
2019-03-29T15:13:18.595Z,42.07
2019-03-29T15:15:49.290Z,42.83
2019-03-29T15:18:19.963Z,43.69
2019-03-29T15:20:53.807Z,43.48
2019-03-29T15:23:23.058Z,44.10
2019-03-29T15:25:54.867Z,43.94
2019-03-29T15:28:28.901Z,44.09
2019-03-29T15:31:00.073Z,44.18
2019-03-29T15:33:30.819Z,45.12
2019-03-29T15:36:01.502Z,44.25
2019-03-29T15:38:37.269Z,44.33
2019-03-29T15:41:08.514Z,45.40
2019-03-29T15:43:39.767Z,44.86
2019-03-29T15:46:10.587Z,45.62
2019-03-29T15:48:41.239Z,45.40
2019-03-29T15:51:11.933Z,46.35
2019-03-29T15:53:42.587Z,46.31
2019-03-29T15:56:13.301Z,46.02
2019-03-29T15:58:43.945Z,45.80
2019-03-29T16:01:14.922Z,45.94
2019-03-29T16:03:45.617Z,46.55
2019-03-29T16:06:16.370Z,46.53
2019-03-29T16:08:47.144Z,46.98
2019-03-29T16:11:17.800Z,47.61
2019-03-29T16:13:48.463Z,48.74
2019-03-29T16:16:19.129Z,48.50
2019-03-29T16:18:50.906Z,49.69
2019-03-29T16:21:21.636Z,49.90
2019-03-29T16:23:52.261Z,50.01
2019-03-29T16:26:22.966Z,50.75
2019-03-29T16:28:53.720Z,50.76
2019-03-29T16:31:24.404Z,50.37
2019-03-29T16:33:55.365Z,50.83
2019-03-29T16:36:26.409Z,51.74
2019-03-29T16:38:57.124Z,51.44
2019-03-29T16:41:27.782Z,51.65
2019-03-29T16:43:58.540Z,53.38
2019-03-29T16:46:29.231Z,52.25
2019-03-29T16:48:59.880Z,53.04
2019-03-29T16:51:30.563Z,53.27
2019-03-29T16:54:01.254Z,54.03
2019-03-29T16:56:31.936Z,54.69
2019-03-29T16:59:02.569Z,55.50
2019-03-29T17:01:33.234Z,56.02
2019-03-29T17:04:03.980Z,56.52
2019-03-29T17:06:34.754Z,57.22
2019-03-29T17:09:07.283Z,57.58
2019-03-29T17:11:37.960Z,58.53
2019-03-29T17:14:08.807Z,58.53
2019-03-29T17:16:39.495Z,59.48
2019-03-29T17:19:10.189Z,59.69
2019-03-29T17:21:40.841Z,64.16
2019-03-29T17:24:11.860Z,61.48
2019-03-29T17:26:45.187Z,61.76
2019-03-29T17:29:15.868Z,62.49
2019-03-29T17:31:49.954Z,63.23
2019-03-29T17:34:20.834Z,63.94
2019-03-29T17:36:51.769Z,64.79
2019-03-29T17:39:22.474Z,65.22
2019-03-29T17:41:53.147Z,65.69
2019-03-29T17:44:23.999Z,66.10
2019-03-29T17:46:54.679Z,67.66
2019-03-29T17:49:25.377Z,68.21
2019-03-29T17:51:56.375Z,68.40
2019-03-29T17:54:27.154Z,68.60
2019-03-29T17:56:58.313Z,68.73
2019-03-29T17:59:29.065Z,68.58
2019-03-29T18:02:09.268Z,68.94
2019-03-29T18:04:32.547Z,69.22
2019-03-29T18:07:03.450Z,69.00
2019-03-29T18:09:34.100Z,69.29
2019-03-29T18:12:05.021Z,69.58
2019-03-29T18:14:35.989Z,69.69
2019-03-29T18:17:06.993Z,69.73
2019-03-29T18:19:37.817Z,69.83
2019-03-29T18:22:08.515Z,69.59
2019-03-29T18:24:39.190Z,70.32
2019-03-29T18:27:09.876Z,70.47
2019-03-29T18:29:41.377Z,70.86
2019-03-29T18:32:12.290Z,71.66
2019-03-29T18:34:43.741Z,71.53
2019-03-29T18:37:15.894Z,71.19
2019-03-29T18:39:47.220Z,70.90
2019-03-29T18:42:17.991Z,70.76
2019-03-29T18:44:49.010Z,70.71
2019-03-29T18:47:19.780Z,70.72
2019-03-29T18:49:50.538Z,70.94
2019-03-29T18:52:21.329Z,70.84
2019-03-29T18:54:52.130Z,71.17
2019-03-29T18:57:22.880Z,71.11
2019-03-29T18:59:53.643Z,71.47
2019-03-29T19:02:24.294Z,71.68
2019-03-29T19:04:54.998Z,72.37
2019-03-29T19:07:30.658Z,72.57
2019-03-29T19:10:01.829Z,72.80
2019-03-29T19:12:32.722Z,73.05
2019-03-29T19:15:03.411Z,73.36
2019-03-29T19:17:34.166Z,73.48
2019-03-29T19:20:10.374Z,73.33
2019-03-29T19:22:37.793Z,73.43
2019-03-29T19:25:08.930Z,73.39
2019-03-29T19:27:39.711Z,73.60
2019-03-29T19:30:11.514Z,74.41
2019-03-29T19:32:42.204Z,74.74
2019-03-29T19:35:13.273Z,75.12
2019-03-29T19:37:44.466Z,75.53
2019-03-29T19:40:15.580Z,75.82
2019-03-29T19:42:46.323Z,75.87
2019-03-29T19:45:18.716Z,76.26
2019-03-29T19:47:49.643Z,76.42
2019-03-29T19:50:20.748Z,76.85
2019-03-29T19:52:51.429Z,76.55
2019-03-29T19:55:22.412Z,76.50
2019-03-29T19:57:53.149Z,76.39
2019-03-29T20:00:37.609Z,76.52
2019-03-29T20:03:08.748Z,76.77
2019-03-29T20:05:39.797Z,76.81
2019-03-29T20:08:10.564Z,76.92
2019-03-29T20:10:41.476Z,77.36
2019-03-29T20:13:12.160Z,77.22
2019-03-29T20:15:42.940Z,77.74
2019-03-29T20:18:13.873Z,77.86
2019-03-29T20:20:44.616Z,77.80
2019-03-29T20:23:15.290Z,78.05
2019-03-29T20:25:45.944Z,78.01
2019-03-29T20:28:16.637Z,78.10
2019-03-29T20:30:47.381Z,78.18
2019-03-29T20:33:18.054Z,78.09
2019-03-29T20:35:48.836Z,77.99
2019-03-29T20:38:19.480Z,78.14
2019-03-29T20:40:50.155Z,78.03
2019-03-29T20:43:20.827Z,78.20
2019-03-29T20:45:51.517Z,78.70
2019-03-29T20:48:22.199Z,78.39
2019-03-29T20:50:53.179Z,78.33
2019-03-29T20:53:23.887Z,78.40
2019-03-29T20:55:58.154Z,78.56
2019-03-29T20:58:27.688Z,78.73
2019-03-29T21:00:59.271Z,79.09
2019-03-29T21:03:30.113Z,79.03
2019-03-29T21:06:00.795Z,79.14
2019-03-29T21:08:31.715Z,79.56
2019-03-29T21:11:02.335Z,79.59
2019-03-29T21:13:33.003Z,79.86
2019-03-29T21:16:03.658Z,79.99
2019-03-29T21:18:34.316Z,80.21
2019-03-29T21:21:04.957Z,80.37
2019-03-29T21:23:35.599Z,80.72
2019-03-29T21:26:06.255Z,81.00
2019-03-29T21:28:36.933Z,81.29
2019-03-29T21:31:07.599Z,81.69
2019-03-29T21:33:40.777Z,81.50
2019-03-29T21:36:10.769Z,81.79
2019-03-29T21:38:41.615Z,82.04
2019-03-29T21:41:12.341Z,81.90
2019-03-29T21:43:44.336Z,82.29
2019-03-29T21:46:15.022Z,82.33
2019-03-29T21:48:46.176Z,82.26
2019-03-29T21:51:16.956Z,82.18
2019-03-29T21:53:47.604Z,82.08
2019-03-29T21:56:18.331Z,82.46
2019-03-29T21:58:49.005Z,82.45
2019-03-29T22:01:20.271Z,82.40
2019-03-29T22:03:51.038Z,82.72
2019-03-29T22:06:21.737Z,82.77
2019-03-29T22:08:52.719Z,82.73
2019-03-29T22:11:23.552Z,82.84
2019-03-29T22:13:54.219Z,83.15
2019-03-29T22:16:25.163Z,83.52
2019-03-29T22:18:55.974Z,83.75
2019-03-29T22:21:26.716Z,83.53
2019-03-29T22:23:57.725Z,83.57
2019-03-29T22:26:28.399Z,83.41
2019-03-29T22:28:59.045Z,83.44
2019-03-29T22:31:29.859Z,83.43
2019-03-29T22:34:00.544Z,83.57
2019-03-29T22:36:31.214Z,83.68
2019-03-29T22:39:01.935Z,83.85
2019-03-29T22:41:32.981Z,84.05
2019-03-29T22:44:03.725Z,84.06
2019-03-29T22:46:35.047Z,84.18
2019-03-29T22:49:06.174Z,84.04
2019-03-29T22:51:36.858Z,84.13
2019-03-29T22:54:07.612Z,84.03
2019-03-29T22:56:38.426Z,84.25
2019-03-29T22:59:09.094Z,84.47
2019-03-29T23:01:45.572Z,84.87
2019-03-29T23:04:18.414Z,85.17
2019-03-29T23:06:49.146Z,85.23
2019-03-29T23:09:19.800Z,85.11
2019-03-29T23:11:50.775Z,85.25
2019-03-29T23:14:21.456Z,85.28
2019-03-29T23:16:53.319Z,85.37
2019-03-29T23:19:24.399Z,85.17
2019-03-29T23:21:55.107Z,85.29
2019-03-29T23:24:26.065Z,85.65
2019-03-29T23:26:56.759Z,85.48
2019-03-29T23:29:27.405Z,85.55
2019-03-29T23:31:58.091Z,85.56
2019-03-29T23:34:29.040Z,85.82
2019-03-29T23:36:59.747Z,85.98
2019-03-29T23:39:30.650Z,86.03
2019-03-29T23:42:01.298Z,86.10
2019-03-29T23:44:31.957Z,86.05
2019-03-29T23:47:02.665Z,86.16
2019-03-29T23:49:33.616Z,86.23
2019-03-29T23:52:04.627Z,86.26
2019-03-29T23:54:35.867Z,86.29
2019-03-29T23:57:06.659Z,86.35
2019-03-29T23:59:37.646Z,86.30
